Time;durP1;ratioP1;P1;durP2;ratioP2;P2;SDS_P1;SDS_P2;PMS_P1;PMS_P2;Temp;Humidity;BMP_temperature;BMP_pressure;BME280_temperature;BME280_humidity;BME280_pressure;Samples;Min_cycle;Max_cycle;Signal;HPM_P1;HPM_P2
2022/09/03 00:01:37;;;;;;;2.92;2.35;;;;;16.30;93800.00;;;;7395795;19;20132;-73
2022/09/03 00:04:39;;;;;;;7.25;3.38;;;;;16.30;93794.00;;;;7391086;19;20189;-73
2022/09/03 00:07:22;;;;;;;3.03;2.72;;;;;16.30;93787.00;;;;7395539;19;20136;-73
2022/09/03 00:10:01;;;;;;;3.33;2.95;;;;;16.30;93797.00;;;;7392999;19;20152;-73
2022/09/03 00:12:33;;;;;;;3.42;2.80;;;;;16.30;93787.00;;;;7389967;19;20161;-73
2022/09/03 00:15:11;;;;;;;3.17;2.88;;;;;16.30;93792.00;;;;7394186;19;20495;-73
2022/09/03 00:17:48;;;;;;;4.28;2.97;;;;;16.30;93792.00;;;;7391912;19;20161;-73
2022/09/03 00:20:48;;;;;;;3.40;2.80;;;;;16.20;93789.00;;;;7391217;19;20181;-73
2022/09/03 00:23:25;;;;;;;4.35;2.80;;;;;16.30;93792.00;;;;7393620;19;20145;-73
2022/09/03 00:26:11;;;;;;;3.30;2.47;;;;;16.30;93788.00;;;;7391573;19;20165;-73
2022/09/03 00:28:51;;;;;;;3.05;2.75;;;;;16.30;93789.00;;;;7392483;19;20506;-73
2022/09/03 00:31:36;;;;;;;3.63;2.83;;;;;16.20;93785.00;;;;7394542;19;20730;-73
2022/09/03 00:34:26;;;;;;;3.17;2.53;;;;;16.20;93786.00;;;;7391832;19;20153;-73
2022/09/03 00:37:00;;;;;;;3.45;2.58;;;;;16.30;93785.00;;;;7393312;19;20177;-73
2022/09/03 00:39:30;;;;;;;3.42;2.40;;;;;16.30;93783.00;;;;7394251;19;20958;-72
2022/09/03 00:42:25;;;;;;;5.90;2.60;;;;;16.20;93790.00;;;;7392676;19;20119;-73
2022/09/03 00:45:12;;;;;;;3.58;2.70;;;;;16.20;93785.00;;;;7393048;19;20163;-73
2022/09/03 00:48:03;;;;;;;2.67;2.47;;;;;16.20;93783.00;;;;7394395;19;20141;-72
2022/09/03 00:50:59;;;;;;;7.88;2.72;;;;;16.20;93777.00;;;;7392010;19;20556;-73
2022/09/03 00:53:50;;;;;;;3.17;2.90;;;;;16.20;93790.00;;;;7393481;19;20622;-73
2022/09/03 00:56:43;;;;;;;2.70;2.50;;;;;16.20;93792.00;;;;7392386;19;20129;-73
2022/09/03 00:59:25;;;;;;;4.05;2.60;;;;;16.20;93781.00;;;;7392094;19;20129;-73
2022/09/03 01:02:05;;;;;;;6.20;2.70;;;;;16.20;93793.00;;;;7390326;19;20144;-74
2022/09/03 01:04:45;;;;;;;4.80;3.05;;;;;16.10;93790.00;;;;7390610;19;20140;-73
2022/09/03 01:07:45;;;;;;;5.45;2.75;;;;;16.10;93785.00;;;;7395253;19;20129;-73
2022/09/03 01:10:37;;;;;;;2.63;2.42;;;;;16.10;93784.00;;;;7390100;19;20590;-74
2022/09/03 01:13:23;;;;;;;3.05;2.53;;;;;16.10;93779.00;;;;7392722;19;20202;-74
2022/09/03 01:16:02;;;;;;;3.15;2.47;;;;;16.10;93785.00;;;;7391382;19;20600;-73
2022/09/03 01:18:45;;;;;;;4.47;2.20;;;;;16.10;93778.00;;;;7391211;19;20805;-74
2022/09/03 01:21:19;;;;;;;2.60;2.40;;;;;16.10;93780.00;;;;7393144;19;20622;-74
2022/09/03 01:24:22;;;;;;;3.78;3.05;;;;;16.10;93789.00;;;;7389762;19;20642;-75
2022/09/03 01:26:58;;;;;;;4.68;3.05;;;;;16.10;93786.00;;;;7391762;19;20204;-75
2022/09/03 01:29:52;;;;;;;3.22;2.70;;;;;16.00;93772.00;;;;7392621;19;20152;-74
2022/09/03 01:32:31;;;;;;;3.42;2.70;;;;;16.00;93779.00;;;;7391865;19;20606;-74
2022/09/03 01:35:26;;;;;;;2.65;2.45;;;;;16.00;93774.00;;;;7395283;19;20144;-73
2022/09/03 01:38:38;;;;;;;6.28;2.70;;;;;16.00;93787.00;;;;7398582;19;20604;-73
2022/09/03 01:45:20;;;;;;;2.67;2.47;;;;;15.80;93789.00;;;;7397652;19;20499;-74
2022/09/03 01:48:05;;;;;;;2.33;2.10;;;;;15.90;93797.00;;;;7395252;19;20194;-74
2022/09/03 01:50:48;;;;;;;3.47;2.72;;;;;15.90;93793.00;;;;7395105;19;20879;-73
2022/09/03 01:57:06;;;;;;;3.75;2.60;;;;;15.80;93787.00;;;;7398185;19;20129;-74
2022/09/03 02:00:10;;;;;;;3.35;2.78;;;;;15.90;93792.00;;;;7395936;19;20208;-74
2022/09/03 02:02:39;;;;;;;2.83;2.40;;;;;16.00;93785.00;;;;7396597;19;20240;-74
2022/09/03 02:05:17;;;;;;;5.88;2.90;;;;;15.90;93783.00;;;;7397623;19;20596;-74
2022/09/03 02:07:48;;;;;;;2.90;2.70;;;;;15.90;93782.00;;;;7394657;19;20484;-74
2022/09/03 02:10:45;;;;;;;2.70;2.50;;;;;16.00;93787.00;;;;7396176;19;20156;-75
2022/09/03 02:13:24;;;;;;;5.80;2.40;;;;;16.00;93786.00;;;;7398269;19;20144;-73
2022/09/03 02:16:12;;;;;;;4.93;2.60;;;;;15.90;93783.00;;;;7396268;19;20555;-73
2022/09/03 02:18:47;;;;;;;5.03;2.90;;;;;16.00;93779.00;;;;7395432;19;20143;-73
2022/09/03 02:21:29;;;;;;;3.10;2.33;;;;;16.00;93780.00;;;;7396444;19;20129;-73
2022/09/03 02:23:57;;;;;;;3.88;2.67;;;;;15.90;93771.00;;;;7395629;19;20634;-74
2022/09/03 02:26:31;;;;;;;5.82;2.45;;;;;15.90;93772.00;;;;7397836;19;20656;-74
2022/09/03 02:29:00;;;;;;;3.25;2.50;;;;;15.80;93775.00;;;;7396480;19;20542;-74
2022/09/03 02:31:27;;;;;;;3.40;2.53;;;;;15.90;93775.00;;;;7398926;19;20640;-73
2022/09/03 02:34:01;;;;;;;3.58;2.50;;;;;15.90;93776.00;;;;7395929;19;20129;-74
2022/09/03 02:36:34;;;;;;;2.75;2.55;;;;;16.00;93774.00;;;;7395804;19;20125;-73
2022/09/03 02:39:08;;;;;;;3.10;2.75;;;;;16.00;93775.00;;;;7398144;19;20121;-73
2022/09/03 02:41:36;;;;;;;3.45;2.53;;;;;16.00;93777.00;;;;7396295;19;20165;-73
2022/09/03 02:44:30;;;;;;;2.63;2.42;;;;;16.00;93779.00;;;;7395750;19;20152;-73
2022/09/03 02:47:06;;;;;;;2.78;2.42;;;;;16.00;93780.00;;;;7395338;19;20623;-74
2022/09/03 02:49:34;;;;;;;2.92;2.63;;;;;15.90;93783.00;;;;7397474;19;20152;-73
2022/09/03 02:52:08;;;;;;;5.32;2.70;;;;;15.90;93784.00;;;;7393968;19;20581;-74
2022/09/03 02:54:44;;;;;;;4.47;2.90;;;;;15.90;93786.00;;;;7397301;19;20133;-73
2022/09/03 02:57:14;;;;;;;2.75;2.55;;;;;15.90;93785.00;;;;7397504;19;20181;-74
2022/09/03 02:59:45;;;;;;;3.90;3.03;;;;;15.80;93788.00;;;;7396116;19;20148;-74
2022/09/03 03:02:19;;;;;;;2.80;2.60;;;;;15.70;93789.00;;;;7393083;19;20137;-74
2022/09/03 03:04:46;;;;;;;3.90;2.90;;;;;15.80;93788.00;;;;7395823;19;20133;-74
2022/09/03 03:07:14;;;;;;;2.78;2.55;;;;;15.70;93792.00;;;;7395949;19;20162;-74
2022/09/03 03:09:48;;;;;;;3.38;2.90;;;;;15.70;93785.00;;;;7395380;19;20200;-74
2022/09/03 03:12:16;;;;;;;4.05;2.95;;;;;15.60;93776.00;;;;7396055;19;20496;-75
2022/09/03 03:14:43;;;;;;;3.78;2.67;;;;;15.70;93785.00;;;;7399252;19;20133;-73
2022/09/03 03:17:19;;;;;;;4.00;2.80;;;;;15.60;93783.00;;;;7398668;19;20121;-73
2022/09/03 03:19:59;;;;;;;3.25;2.60;;;;;15.40;93789.00;;;;7394248;19;20382;-73
2022/09/03 03:22:34;;;;;;;2.65;2.45;;;;;15.30;93779.00;;;;7394957;19;20133;-73
2022/09/03 03:25:01;;;;;;;3.53;2.65;;;;;15.30;93780.00;;;;7395603;19;20212;-73
2022/09/03 03:27:29;;;;;;;4.80;3.00;;;;;15.40;93777.00;;;;7395504;19;20188;-73
2022/09/03 03:30:04;;;;;;;3.00;2.60;;;;;15.40;93776.00;;;;7397086;19;20587;-73
2022/09/03 03:32:31;;;;;;;2.78;2.58;;;;;15.40;93771.00;;;;7395833;19;20180;-73
2022/09/03 03:35:01;;;;;;;3.15;2.40;;;;;15.40;93778.00;;;;7393681;19;21159;-74
2022/09/03 03:37:35;;;;;;;2.83;2.63;;;;;15.40;93778.00;;;;7395435;19;20618;-73
2022/09/03 03:40:03;;;;;;;3.15;2.80;;;;;15.50;93783.00;;;;7392827;19;20220;-73
2022/09/03 03:42:33;;;;;;;3.00;2.70;;;;;15.60;93777.00;;;;7393737;19;20746;-73
2022/09/03 03:45:08;;;;;;;4.38;2.60;;;;;15.40;93787.00;;;;7394559;19;20152;-74
2022/09/03 03:47:36;;;;;;;2.85;2.50;;;;;15.20;93789.00;;;;7396264;19;20600;-73
2022/09/03 03:50:04;;;;;;;2.88;2.58;;;;;15.10;93795.00;;;;7396710;19;20605;-73
2022/09/03 03:52:39;;;;;;;3.75;2.55;;;;;15.00;93796.00;;;;7396629;19;20120;-73
2022/09/03 03:55:07;;;;;;;4.68;2.70;;;;;15.10;93790.00;;;;7393715;19;20165;-73
2022/09/03 03:57:35;;;;;;;4.13;2.53;;;;;15.10;93799.00;;;;7395535;19;20149;-74
2022/09/03 04:00:09;;;;;;;2.80;2.60;;;;;15.00;93801.00;;;;7391235;19;20152;-74
2022/09/03 04:02:37;;;;;;;3.35;2.70;;;;;15.00;93799.00;;;;7391858;19;20515;-74
2022/09/03 04:05:06;;;;;;;3.60;2.83;;;;;15.00;93809.00;;;;7395432;19;20472;-74
2022/09/03 04:07:40;;;;;;;4.32;3.00;;;;;15.00;93803.00;;;;7393907;19;20159;-74
2022/09/03 04:10:08;;;;;;;3.55;2.83;;;;;14.90;93806.00;;;;7393174;19;20149;-74
2022/09/03 04:12:35;;;;;;;5.10;2.85;;;;;15.00;93799.00;;;;7393395;19;20539;-74
2022/09/03 04:15:10;;;;;;;3.00;2.67;;;;;15.10;93797.00;;;;7394546;19;20148;-73
2022/09/03 04:17:38;;;;;;;3.58;3.05;;;;;15.10;93799.00;;;;7395874;19;20580;-73
2022/09/03 04:20:06;;;;;;;3.42;3.13;;;;;15.10;93799.00;;;;7392163;19;20172;-73
2022/09/03 04:22:40;;;;;;;6.53;3.20;;;;;15.20;93793.00;;;;7393852;19;20199;-74
2022/09/03 04:25:08;;;;;;;4.22;3.20;;;;;15.20;93796.00;;;;7393876;19;20167;-74
2022/09/03 04:27:43;;;;;;;3.53;3.17;;;;;15.20;93790.00;;;;7390642;19;20144;-74
2022/09/03 04:30:17;;;;;;;6.53;3.53;;;;;15.20;93793.00;;;;7391258;19;20157;-74
2022/09/03 04:32:53;;;;;;;3.95;3.15;;;;;15.20;93794.00;;;;7394866;19;20148;-75
2022/09/03 04:35:28;;;;;;;3.65;3.35;;;;;15.10;93795.00;;;;7394359;19;20152;-73
2022/09/03 04:37:57;;;;;;;4.95;3.47;;;;;15.20;93790.00;;;;7392699;19;20620;-74
2022/09/03 04:40:25;;;;;;;3.80;3.50;;;;;15.20;93791.00;;;;7389456;19;20150;-74
2022/09/03 04:42:59;;;;;;;3.05;2.80;;;;;15.10;93794.00;;;;7392316;19;20187;-72
2022/09/03 04:45:27;;;;;;;5.13;3.47;;;;;15.10;93796.00;;;;7393187;19;20152;-73
2022/09/03 04:47:56;;;;;;;4.47;3.67;;;;;15.10;93797.00;;;;7391211;19;20620;-72
2022/09/03 04:50:31;;;;;;;2.97;2.78;;;;;15.10;93804.00;;;;7390925;19;20152;-73
2022/09/03 04:53:04;;;;;;;7.28;3.47;;;;;15.20;93810.00;;;;7392888;19;20137;-73
2022/09/03 04:55:38;;;;;;;3.88;2.88;;;;;15.20;93806.00;;;;7392585;19;20211;-73
2022/09/03 04:58:08;;;;;;;3.55;3.25;;;;;15.20;93801.00;;;;7391171;19;20613;-73
2022/09/03 05:00:36;;;;;;;5.55;3.83;;;;;15.20;93793.00;;;;7391646;19;20620;-73
2022/09/03 05:03:10;;;;;;;4.40;3.38;;;;;15.30;93812.00;;;;7392570;19;20166;-73
2022/09/03 05:05:37;;;;;;;5.18;3.10;;;;;15.30;93810.00;;;;7392273;19;20514;-73
2022/09/03 05:08:05;;;;;;;5.53;3.28;;;;;15.30;93806.00;;;;7390062;19;20153;-73
2022/09/03 05:10:39;;;;;;;3.78;3.42;;;;;15.30;93805.00;;;;7401307;19;20148;-73
2022/09/03 05:13:06;;;;;;;3.20;2.90;;;;;15.30;93801.00;;;;7405433;19;20128;-73
2022/09/03 05:15:34;;;;;;;4.40;3.05;;;;;15.30;93803.00;;;;7405754;19;20168;-73
2022/09/03 05:18:11;;;;;;;3.60;3.30;;;;;15.40;93814.00;;;;7404159;19;20152;-74
2022/09/03 05:20:44;;;;;;;3.88;3.33;;;;;15.40;93807.00;;;;7405659;19;20149;-74
2022/09/03 05:23:20;;;;;;;6.18;3.38;;;;;15.50;93799.00;;;;7407226;19;20132;-73
2022/09/03 05:26:09;;;;;;;3.90;3.55;;;;;15.50;93803.00;;;;7406940;19;20448;-73
2022/09/03 05:28:44;;;;;;;4.90;3.50;;;;;15.60;93807.00;;;;7405057;19;20608;-73
2022/09/03 05:31:13;;;;;;;4.43;3.97;;;;;15.80;93806.00;;;;7405259;19;20156;-73
2022/09/03 05:33:47;;;;;;;4.72;3.42;;;;;15.90;93805.00;;;;7405082;19;20192;-73
2022/09/03 05:36:22;;;;;;;3.90;3.60;;;;;15.90;93810.00;;;;7402298;19;20144;-73
2022/09/03 05:38:53;;;;;;;3.15;2.95;;;;;15.90;93817.00;;;;7404547;19;20212;-74
2022/09/03 05:41:21;;;;;;;4.20;3.08;;;;;15.80;93814.00;;;;7402065;19;20181;-74
2022/09/03 05:43:59;;;;;;;3.50;3.17;;;;;15.80;93817.00;;;;7403743;19;20599;-74
2022/09/03 05:46:32;;;;;;;4.80;3.50;;;;;15.90;93818.00;;;;7404050;19;20144;-73
2022/09/03 05:49:07;;;;;;;4.50;3.28;;;;;16.00;93816.00;;;;7405118;19;20124;-73
2022/09/03 05:51:38;;;;;;;4.20;3.13;;;;;16.00;93819.00;;;;7405327;19;20195;-73
2022/09/03 05:54:10;;;;;;;3.10;2.90;;;;;16.00;93822.00;;;;7405114;19;20753;-73
2022/09/03 05:56:44;;;;;;;4.32;3.08;;;;;16.10;93811.00;;;;7396745;19;20169;-73
2022/09/03 05:59:12;;;;;;;3.75;2.88;;;;;16.00;93822.00;;;;7402867;19;20153;-73
2022/09/03 06:01:45;;;;;;;3.30;2.97;;;;;16.20;93814.00;;;;7403961;19;20143;-73
2022/09/03 06:04:26;;;;;;;3.10;2.90;;;;;16.20;93819.00;;;;7401809;19;20209;-74
2022/09/03 06:07:09;;;;;;;3.25;2.95;;;;;16.20;93823.00;;;;7402668;19;20148;-73
2022/09/03 06:09:50;;;;;;;3.65;3.05;;;;;16.20;93827.00;;;;7405542;19;20175;-74
2022/09/03 06:12:20;;;;;;;3.17;2.88;;;;;16.30;93830.00;;;;7403912;19;20160;-72
2022/09/03 06:14:54;;;;;;;2.95;2.67;;;;;16.30;93821.00;;;;7403961;19;20245;-73
2022/09/03 06:17:22;;;;;;;3.80;3.13;;;;;16.30;93823.00;;;;7404249;19;20156;-75
2022/09/03 06:19:50;;;;;;;3.40;3.10;;;;;16.10;93831.00;;;;7402565;19;20616;-72
2022/09/03 06:22:33;;;;;;;3.20;2.90;;;;;16.10;93835.00;;;;7394415;19;20588;-72
2022/09/03 06:25:01;;;;;;;3.20;2.75;;;;;16.10;93837.00;;;;7396747;19;20622;-72
2022/09/03 06:27:35;;;;;;;3.75;3.10;;;;;16.20;93834.00;;;;7397330;19;20156;-73
2022/09/03 06:30:05;;;;;;;3.53;3.22;;;;;16.20;93832.00;;;;7396412;19;20160;-73
2022/09/03 06:32:32;;;;;;;3.58;3.28;;;;;16.20;93841.00;;;;7395355;19;20149;-73
2022/09/03 06:35:07;;;;;;;3.95;3.53;;;;;16.10;93838.00;;;;7396073;19;20137;-73
2022/09/03 06:37:39;;;;;;;3.30;3.00;;;;;16.10;93837.00;;;;7397030;19;20167;-73
2022/09/03 06:40:19;;;;;;;4.30;3.30;;;;;16.10;93843.00;;;;7394073;19;20152;-73
2022/09/03 06:43:00;;;;;;;3.13;2.90;;;;;16.20;93832.00;;;;7396070;19;20594;-73
2022/09/03 06:45:47;;;;;;;3.75;3.40;;;;;16.30;93834.00;;;;7397694;19;20128;-73
2022/09/03 06:48:16;;;;;;;4.03;3.17;;;;;16.40;93841.00;;;;7395863;19;20205;-73
2022/09/03 06:51:14;;;;;;;3.47;3.17;;;;;16.60;93842.00;;;;7395204;19;20160;-74
2022/09/03 06:53:50;;;;;;;4.25;3.50;;;;;16.80;93839.00;;;;7397104;19;20153;-74
2022/09/03 06:56:26;;;;;;;3.88;3.58;;;;;16.90;93831.00;;;;7395373;19;20144;-74
2022/09/03 06:58:55;;;;;;;3.85;3.40;;;;;17.00;93837.00;;;;7396976;19;20161;-73
2022/09/03 07:01:27;;;;;;;3.92;3.53;;;;;17.20;93839.00;;;;7392862;19;20133;-74
2022/09/03 07:04:03;;;;;;;4.07;3.30;;;;;17.30;93837.00;;;;7395613;19;20152;-74
2022/09/03 07:06:36;;;;;;;4.90;3.30;;;;;17.30;93837.00;;;;7394349;19;20484;-73
2022/09/03 07:09:11;;;;;;;4.80;3.40;;;;;17.40;93831.00;;;;7394795;19;20144;-73
2022/09/03 07:11:45;;;;;;;6.80;3.30;;;;;17.60;93837.00;;;;7395987;19;20133;-74
2022/09/03 07:14:20;;;;;;;6.20;3.60;;;;;17.80;93829.00;;;;7394741;19;20140;-74
2022/09/03 07:16:49;;;;;;;4.45;3.90;;;;;17.90;93831.00;;;;7392377;19;20161;-72
2022/09/03 07:19:17;;;;;;;4.90;4.10;;;;;17.90;93836.00;;;;7394682;19;20129;-73
2022/09/03 07:21:58;;;;;;;5.55;3.30;;;;;18.00;93834.00;;;;7391108;19;20508;-73
2022/09/03 07:24:26;;;;;;;3.60;3.30;;;;;18.10;93831.00;;;;7393194;19;20166;-72
2022/09/03 07:27:01;;;;;;;3.33;3.05;;;;;18.30;93824.00;;;;7394584;19;20506;-72
2022/09/03 07:29:29;;;;;;;3.63;3.33;;;;;18.60;93827.00;;;;7397851;19;20144;-74
2022/09/03 07:31:56;;;;;;;4.22;3.25;;;;;18.80;93832.00;;;;7395683;19;20147;-72
2022/09/03 07:34:30;;;;;;;5.63;3.70;;;;;18.90;93837.00;;;;7394955;19;20129;-74
2022/09/03 07:36:58;;;;;;;3.30;3.00;;;;;18.80;93841.00;;;;7395856;19;20145;-72
2022/09/03 07:39:26;;;;;;;3.13;2.92;;;;;18.60;93842.00;;;;7395027;19;20129;-74
2022/09/03 07:42:01;;;;;;;3.83;3.42;;;;;18.50;93843.00;;;;7391990;19;20137;-74
2022/09/03 07:44:29;;;;;;;5.88;3.05;;;;;18.40;93846.00;;;;7395212;19;20635;-75
2022/09/03 07:46:57;;;;;;;3.13;2.83;;;;;18.40;93844.00;;;;7396273;19;20166;-73
2022/09/03 07:49:31;;;;;;;4.45;2.78;;;;;18.50;93844.00;;;;7396005;19;20738;-73
2022/09/03 07:51:58;;;;;;;3.38;2.97;;;;;18.70;93844.00;;;;7394452;19;20140;-74
2022/09/03 07:54:26;;;;;;;3.22;2.92;;;;;18.90;93845.00;;;;7393604;19;20133;-74
2022/09/03 07:57:00;;;;;;;3.25;2.95;;;;;19.10;93845.00;;;;7393386;19;20809;-74
2022/09/03 07:59:28;;;;;;;3.42;3.13;;;;;19.10;93849.00;;;;7395397;19;20162;-74
2022/09/03 08:01:56;;;;;;;3.60;3.30;;;;;19.00;93854.00;;;;7389571;19;20125;-74
2022/09/03 08:04:32;;;;;;;4.70;3.45;;;;;18.50;93858.00;;;;7391403;19;20176;-74
2022/09/03 08:07:00;;;;;;;3.60;3.28;;;;;18.50;93865.00;;;;7390044;19;20156;-74
2022/09/03 08:09:28;;;;;;;3.65;2.85;;;;;18.20;93865.00;;;;7392691;19;20163;-75
2022/09/03 08:12:02;;;;;;;3.85;3.30;;;;;18.00;93882.00;;;;7393029;19;20153;-75
2022/09/03 08:14:31;;;;;;;3.28;3.00;;;;;18.10;93876.00;;;;7389213;19;20654;-74
2022/09/03 08:16:59;;;;;;;3.45;3.15;;;;;18.10;93874.00;;;;7392144;19;20222;-73
2022/09/03 08:19:40;;;;;;;3.63;3.33;;;;;18.40;93875.00;;;;7392153;19;20144;-74
2022/09/03 08:22:15;;;;;;;4.35;3.28;;;;;18.80;93871.00;;;;7390474;19;20137;-74
2022/09/03 08:24:53;;;;;;;4.97;3.30;;;;;19.30;93868.00;;;;7392894;19;20163;-74
2022/09/03 08:27:24;;;;;;;3.88;3.10;;;;;19.50;93877.00;;;;7392928;19;20638;-74
2022/09/03 08:30:03;;;;;;;3.28;2.92;;;;;19.80;93873.00;;;;7394998;19;20559;-74
2022/09/03 08:32:30;;;;;;;3.03;2.83;;;;;19.70;93872.00;;;;7392380;19;20132;-73
2022/09/03 08:34:59;;;;;;;5.25;2.88;;;;;19.50;93872.00;;;;7394790;19;20136;-73
2022/09/03 08:37:33;;;;;;;4.88;3.03;;;;;19.40;93883.00;;;;7393087;19;20224;-72
2022/09/03 08:40:03;;;;;;;4.70;3.25;;;;;19.50;93877.00;;;;7389429;19;20248;-73
2022/09/03 08:42:45;;;;;;;4.28;3.25;;;;;19.70;93883.00;;;;7388333;19;20148;-72
2022/09/03 08:45:20;;;;;;;4.72;3.03;;;;;19.80;93874.00;;;;7391952;19;20152;-75
2022/09/03 08:48:05;;;;;;;4.20;3.03;;;;;20.20;93879.00;;;;7389617;19;20148;-75
2022/09/03 08:50:44;;;;;;;4.45;3.03;;;;;21.30;93884.00;;;;7389711;19;20128;-74
2022/09/03 08:53:50;;;;;;;6.10;3.00;;;;;21.90;93885.00;;;;7392397;19;20175;-75
2022/09/03 08:56:30;;;;;;;3.75;2.97;;;;;22.30;93891.00;;;;7386771;19;20487;-73
2022/09/03 08:58:59;;;;;;;3.00;2.70;;;;;21.90;93895.00;;;;7391802;19;20148;-73
2022/09/03 09:01:51;;;;;;;3.40;3.10;;;;;21.50;93893.00;;;;7391382;19;20745;-73
2022/09/03 09:04:53;;;;;;;5.80;2.80;;;;;20.90;93894.00;;;;7391264;19;20647;-74
2022/09/03 09:07:37;;;;;;;3.83;2.90;;;;;20.80;93897.00;;;;7386466;19;20192;-73
2022/09/03 09:10:17;;;;;;;4.57;3.47;;;;;20.80;93908.00;;;;7390066;19;20615;-75
2022/09/03 09:13:20;;;;;;;3.50;2.75;;;;;20.90;93891.00;;;;7388159;19;20148;-75
2022/09/03 09:16:08;;;;;;;3.13;2.85;;;;;21.50;93895.00;;;;7392798;19;20148;-75
2022/09/03 09:19:11;;;;;;;2.97;2.78;;;;;21.80;93889.00;;;;7384597;19;20163;-74
2022/09/03 09:22:11;;;;;;;3.92;3.10;;;;;21.90;93883.00;;;;7390697;19;20219;-74
2022/09/03 09:24:47;;;;;;;9.38;3.15;;;;;21.90;93891.00;;;;7392911;19;20141;-74
2022/09/03 09:27:16;;;;;;;4.95;2.72;;;;;21.80;93889.00;;;;7394393;19;20659;-75
2022/09/03 09:29:48;;;;;;;3.00;2.80;;;;;21.80;93882.00;;;;7391856;19;20630;-75
2022/09/03 09:32:22;;;;;;;3.40;3.10;;;;;22.20;93871.00;;;;7391284;19;20131;-74
2022/09/03 09:34:50;;;;;;;4.50;2.90;;;;;22.80;93873.00;;;;7392392;19;20140;-75
2022/09/03 09:37:19;;;;;;;3.67;2.90;;;;;22.30;93876.00;;;;7393487;19;20137;-74
2022/09/03 09:39:59;;;;;;;6.85;3.30;;;;;22.10;93893.00;;;;7390272;19;20244;-74
2022/09/03 09:42:29;;;;;;;5.78;2.88;;;;;21.80;93909.00;;;;7386646;19;20144;-74
2022/09/03 09:45:11;;;;;;;5.70;3.10;;;;;21.50;93919.00;;;;7390659;19;20164;-75
2022/09/03 09:47:40;;;;;;;3.35;2.97;;;;;21.10;93915.00;;;;7391119;19;20173;-76
2022/09/03 09:50:20;;;;;;;5.07;3.10;;;;;21.00;93911.00;;;;7390198;19;20212;-73
2022/09/03 09:53:15;;;;;;;3.47;3.08;;;;;20.90;93911.00;;;;7391467;19;20147;-75
2022/09/03 09:55:53;;;;;;;9.75;3.15;;;;;21.20;93909.00;;;;7389942;19;20140;-74
2022/09/03 09:58:27;;;;;;;3.10;2.80;;;;;21.30;93898.00;;;;7394234;19;20208;-75
2022/09/03 10:01:29;;;;;;;3.78;3.05;;;;;22.80;93892.00;;;;7397577;19;20143;-74
2022/09/03 10:03:59;;;;;;;8.75;3.40;;;;;23.00;93891.00;;;;7393302;19;20176;-72
2022/09/03 10:06:53;;;;;;;3.40;3.10;;;;;23.10;93893.00;;;;7395997;19;20187;-72
2022/09/03 10:09:24;;;;;;;3.88;3.08;;;;;22.70;93896.00;;;;7398743;19;20159;-74
2022/09/03 10:12:18;;;;;;;4.65;2.97;;;;;22.80;93893.00;;;;7395874;19;20135;-73
2022/09/03 10:14:54;;;;;;;3.38;3.08;;;;;22.10;93896.00;;;;7397108;19;20148;-74
2022/09/03 10:17:49;;;;;;;3.63;3.08;;;;;21.90;93892.00;;;;7398096;19;20153;-74
2022/09/03 10:20:50;;;;;;;4.50;3.28;;;;;23.00;93891.00;;;;7394102;19;20260;-74
2022/09/03 10:23:27;;;;;;;4.50;3.20;;;;;23.80;93880.00;;;;7395055;19;20133;-74
2022/09/03 10:26:06;;;;;;;3.20;2.95;;;;;23.70;93863.00;;;;7395057;19;20753;-74
2022/09/03 10:28:44;;;;;;;4.03;2.92;;;;;24.00;93868.00;;;;7395509;19;20160;-75
2022/09/03 10:31:27;;;;;;;8.48;3.22;;;;;24.10;93880.00;;;;7397593;19;20612;-75
2022/09/03 10:34:27;;;;;;;4.78;2.95;;;;;23.90;93868.00;;;;7398030;19;20599;-75
2022/09/03 10:37:00;;;;;;;3.33;2.70;;;;;23.60;93880.00;;;;7397466;19;20676;-76
2022/09/03 10:40:04;;;;;;;4.43;2.70;;;;;23.20;93886.00;;;;7397073;19;20160;-73
2022/09/03 10:43:15;;;;;;;3.33;3.03;;;;;22.80;93881.00;;;;7395618;19;20170;-75
2022/09/03 10:46:10;;;;;;;2.85;2.65;;;;;22.50;93888.00;;;;7396564;19;20121;-74
2022/09/03 10:49:18;;;;;;;3.35;2.60;;;;;21.90;93897.00;;;;7395795;19;20149;-75
2022/09/03 10:52:24;;;;;;;7.28;3.47;;;;;21.30;93899.00;;;;7391069;19;20635;-73
2022/09/03 10:55:05;;;;;;;2.88;2.53;;;;;21.30;93902.00;;;;7392828;19;20149;-74
2022/09/03 10:58:06;;;;;;;3.08;2.67;;;;;21.30;93897.00;;;;7394550;19;20641;-74
2022/09/03 11:00:53;;;;;;;4.75;2.70;;;;;21.10;93901.00;;;;7395796;19;20144;-75
2022/09/03 11:03:44;;;;;;;3.53;2.60;;;;;21.10;93900.00;;;;7396217;19;20508;-75
2022/09/03 11:06:27;;;;;;;3.97;2.72;;;;;20.80;93906.00;;;;7394902;19;20216;-75
2022/09/03 11:09:15;;;;;;;6.20;2.75;;;;;20.70;93893.00;;;;7394528;19;20148;-74
2022/09/03 11:11:59;;;;;;;5.95;3.38;;;;;20.80;93897.00;;;;7398360;19;21094;-74
2022/09/03 11:14:43;;;;;;;4.20;2.95;;;;;20.90;93894.00;;;;7392949;19;20248;-75
2022/09/03 11:17:20;;;;;;;3.30;2.97;;;;;20.80;93897.00;;;;7395434;19;20139;-75
2022/09/03 11:20:24;;;;;;;3.00;2.78;;;;;20.80;93889.00;;;;7393788;19;20606;-75
2022/09/03 11:23:12;;;;;;;3.80;2.85;;;;;21.00;93894.00;;;;7391883;19;20626;-74
2022/09/03 11:25:55;;;;;;;3.08;2.88;;;;;21.20;93893.00;;;;7395613;19;20495;-75
2022/09/03 11:28:30;;;;;;;3.03;2.83;;;;;21.20;93887.00;;;;7394635;19;20167;-74
2022/09/03 11:31:12;;;;;;;5.13;2.78;;;;;20.90;93887.00;;;;7394875;19;20481;-74
2022/09/03 11:34:12;;;;;;;3.58;3.25;;;;;20.80;93899.00;;;;7397751;19;20192;-74
2022/09/03 11:37:14;;;;;;;4.82;2.95;;;;;20.90;93894.00;;;;7388836;19;20545;-74
2022/09/03 11:39:42;;;;;;;3.92;3.13;;;;;20.70;93905.00;;;;7395930;19;20541;-75
2022/09/03 11:42:27;;;;;;;5.63;2.60;;;;;20.50;93898.00;;;;7394294;19;20503;-74
2022/09/03 11:45:11;;;;;;;7.85;3.10;;;;;20.40;93899.00;;;;7393990;19;20160;-74
2022/09/03 11:47:46;;;;;;;4.50;2.95;;;;;20.30;93892.00;;;;7394692;19;20613;-74
2022/09/03 11:50:29;;;;;;;3.00;2.80;;;;;20.20;93900.00;;;;7394722;19;20133;-74
2022/09/03 11:53:35;;;;;;;4.28;2.80;;;;;20.10;93899.00;;;;7393936;19;20129;-74
2022/09/03 11:56:06;;;;;;;3.30;3.00;;;;;20.00;93902.00;;;;7392543;19;20143;-74
2022/09/03 11:58:42;;;;;;;3.65;3.35;;;;;20.00;93902.00;;;;7393212;19;20223;-74
2022/09/03 12:01:17;;;;;;;3.63;3.25;;;;;20.00;93908.00;;;;7395686;19;20277;-74
2022/09/03 12:03:57;;;;;;;4.78;3.25;;;;;20.10;93909.00;;;;7393075;19;20176;-74
2022/09/03 12:06:50;;;;;;;3.05;2.80;;;;;20.30;93906.00;;;;7394535;19;20155;-75
2022/09/03 12:10:02;;;;;;;3.63;3.10;;;;;20.30;93906.00;;;;7391746;19;20135;-73
2022/09/03 12:13:10;;;;;;;4.72;3.13;;;;;20.30;93905.00;;;;7392752;19;20164;-73
2022/09/03 12:16:14;;;;;;;2.90;2.70;;;;;20.50;93891.00;;;;7391965;19;20145;-74
2022/09/03 12:18:44;;;;;;;5.32;2.80;;;;;20.70;93896.00;;;;7392961;19;20548;-74
2022/09/03 12:21:25;;;;;;;2.80;2.60;;;;;21.00;93893.00;;;;7390783;19;20639;-74
2022/09/03 12:24:02;;;;;;;3.08;2.78;;;;;21.20;93888.00;;;;7392088;19;20152;-73
2022/09/03 12:26:40;;;;;;;4.68;3.22;;;;;21.30;93895.00;;;;7392408;19;20239;-73
2022/09/03 12:29:24;;;;;;;4.07;3.20;;;;;21.30;93898.00;;;;7395623;19;20136;-74
2022/09/03 12:32:07;;;;;;;3.08;2.60;;;;;20.90;93899.00;;;;7393423;19;20137;-74
2022/09/03 12:34:35;;;;;;;5.13;2.70;;;;;20.50;93904.00;;;;7392151;19;20166;-74
2022/09/03 12:37:24;;;;;;;7.22;3.08;;;;;20.20;93909.00;;;;7391952;19;20129;-74
2022/09/03 12:40:20;;;;;;;4.45;2.45;;;;;20.20;93908.00;;;;7391863;19;20136;-75
2022/09/03 12:43:16;;;;;;;4.82;2.08;;;;;20.40;93908.00;;;;7392849;19;20216;-75
2022/09/03 12:46:04;;;;;;;5.80;2.38;;;;;20.40;93914.00;;;;7391375;19;20639;-75
2022/09/03 12:48:45;;;;;;;4.82;2.00;;;;;20.20;93913.00;;;;7389625;19;20137;-74
2022/09/03 12:51:13;;;;;;;2.53;2.00;;;;;19.90;93940.00;;;;7392757;19;20151;-74
2022/09/03 12:54:15;;;;;;;3.38;1.88;;;;;19.70;93934.00;;;;7390464;19;20507;-76
2022/09/03 12:56:53;;;;;;;2.30;2.08;;;;;19.50;93933.00;;;;7393467;19;20151;-74
2022/09/03 12:59:34;;;;;;;2.55;1.90;;;;;19.30;93937.00;;;;7393002;19;20137;-74
2022/09/03 13:02:16;;;;;;;2.47;1.90;;;;;19.20;93937.00;;;;7391788;19;20129;-74
2022/09/03 13:04:51;;;;;;;4.20;2.08;;;;;19.30;93930.00;;;;7389989;19;20543;-75
2022/09/03 13:07:40;;;;;;;3.55;1.88;;;;;19.60;93936.00;;;;7392643;19;20141;-75
2022/09/03 13:10:29;;;;;;;2.05;1.83;;;;;20.10;93924.00;;;;7391640;19;20151;-75
2022/09/03 13:13:05;;;;;;;2.53;1.80;;;;;21.20;93926.00;;;;7392231;19;20200;-74
2022/09/03 13:15:39;;;;;;;4.80;1.80;;;;;20.90;93928.00;;;;7392913;19;20468;-74
2022/09/03 13:18:40;;;;;;;1.88;1.50;;;;;20.80;93916.00;;;;7390997;19;20243;-74
2022/09/03 13:21:26;;;;;;;5.50;2.00;;;;;22.00;93903.00;;;;7388749;19;20180;-74
2022/09/03 13:23:55;;;;;;;2.58;2.00;;;;;22.90;93893.00;;;;7386978;19;20181;-77